Accueil
METAR-TAF:

METAR-TAF

Aéroports :

Aéroport de Karlsruhe-Baden-Baden

Baden-Baden, Allemagne

latitude: 48-46-43N, longitude: 008-04-47E, altitude: 124 m

Observation

Le bulletin a été fait il y a 36 minutes, à 21:50 UTC
Vent 13 kt de nord-est
Température 4°C
Humidité 65%
Pression 1007 hPa
Visibilité 10 km ou plus
Nuages fragmentés à une hauteur de 3500 ft

METAR: EDSB 192150Z 04013KT 9999 BKN035 04/M02 Q1007

Heure: 23:26 (22:26 UTC)

Prévision

Le bulletin a été fait il y a 5 heures et 26 minutes, à 17:00 UTC
Prévision valable du 19 à 18 UTC au 20 à 18 UTC
Vent 10 kt de nord-est
Visibilité 10 km ou plus
Nuages fragmentés à une hauteur de 3000 ft

TAF: EDSB 191700Z 1918/2018 04010KT 9999 BKN030

Observations et prévisions météorologiques de plus de 4000 aéroports (messages METAR et TAF).

Les stations disponibles sont représentées par des disques jaunes et rouges sur la carte.

Passer la souris dessus pour voir le nom de la station.

Cliquer dessus pour voir les observations et prévisions météorologiques.

Pour changer de carte: cliquez sur les boutons verts avec une croix noire pour zoomer, sur le bouton vert avec un tiret pour effectuer un zoom arrière, ou sur les flèches vertes pour les cartes adjacentes.


METAR-TAF: